createdAt,value
2019-03-23T00:01:20.589Z,100415.00
2019-03-23T00:03:26.367Z,100427.00
2019-03-23T00:05:32.752Z,100419.00
2019-03-23T00:07:39.225Z,100414.00
2019-03-23T00:09:45.255Z,100410.00
2019-03-23T00:11:51.604Z,100414.00
2019-03-23T00:13:57.956Z,100417.00
2019-03-23T00:16:03.683Z,100412.00
2019-03-23T00:18:09.686Z,100417.00
2019-03-23T00:20:15.585Z,100422.00
2019-03-23T00:22:21.893Z,100420.00
2019-03-23T00:24:27.685Z,100418.00
2019-03-23T00:26:33.503Z,100415.00
2019-03-23T00:28:39.996Z,100416.00
2019-03-23T00:30:46.026Z,100417.00
2019-03-23T00:32:52.117Z,100428.00
2019-03-23T00:34:57.777Z,100417.00
2019-03-23T00:37:03.866Z,100414.00
2019-03-23T00:39:10.356Z,100420.00
2019-03-23T00:41:16.020Z,100416.00
2019-03-23T00:43:22.047Z,100424.00
2019-03-23T00:45:27.715Z,100426.00
2019-03-23T00:47:33.726Z,100425.00
2019-03-23T00:49:39.666Z,100425.00
2019-03-23T00:51:45.961Z,100426.00
2019-03-23T00:53:51.623Z,100430.00
2019-03-23T00:55:58.008Z,100429.00
2019-03-23T00:58:04.128Z,100435.00
2019-03-23T01:00:10.870Z,100438.00
2019-03-23T01:02:16.596Z,100443.00
2019-03-23T01:04:22.251Z,100442.00
2019-03-23T01:06:28.518Z,100437.00
2019-03-23T01:08:35.093Z,100438.00
2019-03-23T01:10:41.130Z,100445.00
2019-03-23T01:12:46.830Z,100444.00
2019-03-23T01:14:52.542Z,100450.00
2019-03-23T01:16:58.610Z,100455.00
2019-03-23T01:19:04.337Z,100449.00
2019-03-23T01:21:10.691Z,100456.00
2019-03-23T01:23:16.374Z,100449.00
2019-03-23T01:25:22.142Z,100448.00
2019-03-23T01:27:28.584Z,100452.00
2019-03-23T01:29:35.151Z,100453.00
2019-03-23T01:31:41.618Z,100449.00
2019-03-23T01:33:47.448Z,100453.00
2019-03-23T01:35:53.206Z,100453.00
2019-03-23T01:37:58.946Z,100453.00
2019-03-23T01:40:05.072Z,100456.00
2019-03-23T01:42:10.772Z,100460.00
2019-03-23T01:44:17.344Z,100452.00
2019-03-23T01:46:23.401Z,100458.00
2019-03-23T01:48:29.862Z,100446.00
2019-03-23T01:50:36.143Z,100449.00
2019-03-23T01:52:42.329Z,100445.00
2019-03-23T01:54:48.012Z,100444.00
2019-03-23T01:56:54.361Z,100447.00
2019-03-23T01:59:00.449Z,100446.00
2019-03-23T02:01:10.251Z,100447.00
2019-03-23T02:03:18.075Z,100458.00
2019-03-23T02:05:29.598Z,100449.00
2019-03-23T02:07:37.583Z,100452.00
2019-03-23T02:09:45.689Z,100448.00
2019-03-23T02:11:53.990Z,100454.00
2019-03-23T02:14:01.580Z,100451.00
2019-03-23T02:16:07.660Z,100446.00
2019-03-23T02:18:13.647Z,100450.00
2019-03-23T02:20:19.803Z,100446.00
2019-03-23T02:22:26.443Z,100448.00
2019-03-23T02:24:32.802Z,100449.00
2019-03-23T02:26:38.997Z,100445.00
2019-03-23T02:28:45.356Z,100451.00
2019-03-23T02:30:51.008Z,100454.00
2019-03-23T02:32:56.895Z,100458.00
2019-03-23T02:35:02.858Z,100462.00
2019-03-23T02:37:08.927Z,100460.00
2019-03-23T02:39:14.923Z,100465.00
2019-03-23T02:41:20.862Z,100461.00
2019-03-23T02:43:26.825Z,100464.00
2019-03-23T02:45:32.580Z,100461.00
2019-03-23T02:47:38.236Z,100468.00
2019-03-23T02:49:44.153Z,100470.00
2019-03-23T02:51:49.789Z,100472.00
2019-03-23T02:53:56.304Z,100470.00
2019-03-23T02:56:01.981Z,100477.00
2019-03-23T02:58:08.243Z,100471.00
2019-03-23T03:00:15.378Z,100466.00
2019-03-23T03:02:21.514Z,100479.00
2019-03-23T03:04:27.577Z,100476.00
2019-03-23T03:06:33.252Z,100468.00
2019-03-23T03:08:39.551Z,100479.00
2019-03-23T03:10:45.610Z,100479.00
2019-03-23T03:12:51.515Z,100479.00
2019-03-23T03:14:57.978Z,100478.00
2019-03-23T03:17:04.037Z,100484.00
2019-03-23T03:19:09.674Z,100488.00
2019-03-23T03:21:15.298Z,100493.00
2019-03-23T03:23:21.881Z,100488.00
2019-03-23T03:25:27.554Z,100488.00
2019-03-23T03:27:33.795Z,100489.00
2019-03-23T03:29:40.087Z,100496.00
2019-03-23T03:31:45.738Z,100496.00
2019-03-23T03:33:51.369Z,100506.00
2019-03-23T03:35:57.120Z,100504.00
2019-03-23T03:38:03.147Z,100506.00
2019-03-23T03:40:09.175Z,100507.00
2019-03-23T03:42:14.829Z,100511.00
2019-03-23T03:44:20.805Z,100507.00
2019-03-23T03:46:27.230Z,100520.00
2019-03-23T03:48:33.139Z,100517.00
2019-03-23T03:50:39.772Z,100523.00
2019-03-23T03:52:45.770Z,100528.00
2019-03-23T03:56:55.660Z,100520.00
2019-03-23T03:59:01.498Z,100514.00
2019-03-23T04:01:07.171Z,100523.00
2019-03-23T04:03:12.893Z,100514.00
2019-03-23T04:05:19.234Z,100516.00
2019-03-23T04:07:25.480Z,100510.00
2019-03-23T04:09:31.124Z,100524.00
2019-03-23T04:11:37.148Z,100515.00
2019-03-23T04:13:43.131Z,100516.00
2019-03-23T04:15:49.098Z,100526.00
2019-03-23T04:17:54.755Z,100521.00
2019-03-23T04:20:01.038Z,100529.00
2019-03-23T04:22:06.760Z,100515.00
2019-03-23T04:24:12.470Z,100528.00
2019-03-23T04:26:18.468Z,100514.00
2019-03-23T04:28:24.245Z,100521.00
2019-03-23T04:30:29.861Z,100525.00
2019-03-23T04:32:36.376Z,100519.00
2019-03-23T04:34:43.089Z,100529.00
2019-03-23T04:36:49.119Z,100538.00
2019-03-23T04:38:55.096Z,100534.00
2019-03-23T04:41:01.179Z,100534.00
2019-03-23T04:43:07.241Z,100537.00
2019-03-23T04:45:13.720Z,100545.00
2019-03-23T04:47:19.701Z,100547.00
2019-03-23T04:49:25.972Z,100545.00
2019-03-23T04:51:32.058Z,100552.00
2019-03-23T04:53:38.032Z,100556.00
2019-03-23T04:55:44.302Z,100557.00
2019-03-23T04:57:50.276Z,100552.00
2019-03-23T04:59:55.927Z,100559.00
2019-03-23T05:02:02.006Z,100564.00
2019-03-23T05:04:07.972Z,100564.00
2019-03-23T05:06:14.171Z,100563.00
2019-03-23T05:08:20.247Z,100574.00
2019-03-23T05:10:26.004Z,100573.00
2019-03-23T05:12:32.071Z,100587.00
2019-03-23T05:14:38.135Z,100591.00
2019-03-23T05:16:44.536Z,100587.00
2019-03-23T05:18:50.521Z,100588.00
2019-03-23T05:24:04.585Z,100597.00
2019-03-23T05:26:10.251Z,100602.00
2019-03-23T05:28:15.906Z,100611.00
2019-03-23T05:30:22.533Z,100610.00
2019-03-23T05:32:28.297Z,100607.00
2019-03-23T05:34:33.982Z,100603.00
2019-03-23T05:36:40.207Z,100624.00
2019-03-23T05:38:46.663Z,100611.00
2019-03-23T05:40:52.855Z,100608.00
2019-03-23T05:42:58.675Z,100605.00
2019-03-23T05:45:04.958Z,100611.00
2019-03-23T05:47:10.679Z,100608.00
2019-03-23T05:49:16.750Z,100607.00
2019-03-23T05:51:22.502Z,100627.00
2019-03-23T05:53:28.414Z,100615.00
2019-03-23T05:55:34.384Z,100629.00
2019-03-23T05:57:40.425Z,100625.00
2019-03-23T05:59:47.342Z,100621.00
2019-03-23T06:01:53.134Z,100615.00
2019-03-23T06:03:59.500Z,100611.00
2019-03-23T06:06:06.287Z,100611.00
2019-03-23T06:08:12.314Z,100608.00
2019-03-23T06:10:18.380Z,100602.00
2019-03-23T06:12:24.157Z,100602.00
2019-03-23T06:14:30.450Z,100619.00
2019-03-23T06:16:36.712Z,100621.00
2019-03-23T06:18:43.210Z,100634.00
2019-03-23T06:20:49.684Z,100631.00
2019-03-23T06:22:55.939Z,100635.00
2019-03-23T06:25:10.138Z,100639.00
2019-03-23T06:27:16.106Z,100628.00
2019-03-23T06:29:22.234Z,100645.00
2019-03-23T06:31:28.261Z,100648.00
2019-03-23T06:33:34.469Z,100638.00
2019-03-23T06:35:40.450Z,100648.00
2019-03-23T06:37:46.895Z,100649.00
2019-03-23T06:39:52.846Z,100642.00
2019-03-23T06:41:58.937Z,100650.00
2019-03-23T06:44:04.876Z,100650.00
2019-03-23T06:46:11.183Z,100650.00
2019-03-23T06:48:17.273Z,100660.00
2019-03-23T06:50:23.913Z,100647.00
2019-03-23T06:52:30.146Z,100650.00
2019-03-23T06:54:36.219Z,100654.00
2019-03-23T06:56:42.265Z,100651.00
2019-03-23T06:58:48.390Z,100649.00
2019-03-23T07:00:55.667Z,100661.00
2019-03-23T07:03:02.016Z,100651.00
2019-03-23T07:05:08.949Z,100655.00
2019-03-23T07:07:15.004Z,100667.00
2019-03-23T07:09:21.130Z,100666.00
2019-03-23T07:11:26.970Z,100662.00
2019-03-23T07:13:32.701Z,100657.00
2019-03-23T07:15:38.469Z,100666.00
2019-03-23T07:17:44.931Z,100660.00
2019-03-23T07:19:51.333Z,100667.00
2019-03-23T07:21:57.436Z,100664.00
2019-03-23T07:24:03.193Z,100669.00
2019-03-23T07:26:09.992Z,100669.00
2019-03-23T07:28:16.440Z,100665.00
2019-03-23T07:30:22.523Z,100675.00
2019-03-23T07:32:29.226Z,100670.00
2019-03-23T07:34:38.773Z,100679.00
2019-03-23T07:36:44.853Z,100681.00
2019-03-23T07:38:50.890Z,100675.00
2019-03-23T07:40:56.617Z,100672.00
2019-03-23T07:43:02.386Z,100678.00
2019-03-23T07:45:09.865Z,100676.00
2019-03-23T07:47:16.290Z,100683.00
2019-03-23T07:49:22.769Z,100682.00
2019-03-23T07:51:28.714Z,100685.00
2019-03-23T07:53:34.828Z,100690.00
2019-03-23T07:55:40.535Z,100689.00
2019-03-23T07:57:47.274Z,100687.00
2019-03-23T07:59:53.448Z,100695.00
2019-03-23T08:01:59.481Z,100692.00
2019-03-23T08:04:05.343Z,100685.00
2019-03-23T08:06:11.117Z,100698.00
2019-03-23T08:08:16.952Z,100697.00
2019-03-23T08:10:30.971Z,100697.00
2019-03-23T08:12:37.558Z,100694.00
2019-03-23T08:14:44.329Z,100700.00
2019-03-23T08:16:50.589Z,100698.00
2019-03-23T08:18:56.470Z,100700.00
2019-03-23T08:21:02.246Z,100696.00
2019-03-23T08:23:08.504Z,100693.00
2019-03-23T08:25:14.878Z,100703.00
2019-03-23T08:27:21.070Z,100698.00
2019-03-23T08:29:27.110Z,100702.00
2019-03-23T08:31:33.056Z,100696.00
2019-03-23T08:33:38.809Z,100704.00
2019-03-23T08:35:44.695Z,100697.00
2019-03-23T08:37:50.463Z,100694.00
2019-03-23T08:39:56.328Z,100706.00
2019-03-23T08:42:02.452Z,100710.00
2019-03-23T08:44:08.231Z,100700.00
2019-03-23T08:46:14.705Z,100704.00
2019-03-23T08:48:20.683Z,100701.00
2019-03-23T08:50:27.234Z,100708.00
2019-03-23T08:52:33.354Z,100700.00
2019-03-23T08:54:39.355Z,100695.00
2019-03-23T08:56:45.842Z,100693.00
2019-03-23T09:01:08.708Z,100693.00
2019-03-23T09:03:14.795Z,100690.00
2019-03-23T09:05:21.066Z,100691.00
2019-03-23T09:07:27.662Z,100683.00
2019-03-23T09:09:34.012Z,100688.00
2019-03-23T09:11:41.279Z,100692.00
2019-03-23T09:13:47.369Z,100683.00
2019-03-23T09:15:54.132Z,100697.00
2019-03-23T09:18:00.158Z,100704.00
2019-03-23T09:20:07.272Z,100703.00
2019-03-23T09:22:13.334Z,100709.00
2019-03-23T09:24:19.449Z,100701.00
2019-03-23T09:26:25.557Z,100703.00
2019-03-23T09:28:31.997Z,100720.00
2019-03-23T09:30:38.039Z,100704.00
2019-03-23T09:32:43.884Z,100702.00
2019-03-23T09:34:49.659Z,100709.00
2019-03-23T09:36:55.953Z,100706.00
2019-03-23T09:39:01.790Z,100715.00
2019-03-23T09:41:07.858Z,100717.00
2019-03-23T09:43:13.606Z,100712.00
2019-03-23T09:45:19.675Z,100717.00
2019-03-23T09:47:26.144Z,100726.00
2019-03-23T09:49:32.250Z,100711.00
2019-03-23T09:51:38.136Z,100716.00
2019-03-23T09:53:45.068Z,100715.00
2019-03-23T09:55:51.645Z,100713.00
2019-03-23T09:57:57.690Z,100721.00
2019-03-23T10:00:03.668Z,100726.00
2019-03-23T10:02:09.415Z,100738.00
2019-03-23T10:04:15.217Z,100734.00
2019-03-23T10:06:21.295Z,100734.00
2019-03-23T10:08:27.634Z,100735.00
2019-03-23T10:10:34.723Z,100734.00
2019-03-23T10:12:40.592Z,100732.00
2019-03-23T10:14:46.294Z,100737.00
2019-03-23T10:16:52.484Z,100731.00
2019-03-23T10:18:58.935Z,100735.00
2019-03-23T10:21:05.143Z,100738.00
2019-03-23T10:23:11.110Z,100735.00
2019-03-23T10:25:17.067Z,100737.00
2019-03-23T10:27:23.114Z,100732.00
2019-03-23T10:29:29.544Z,100737.00
2019-03-23T10:31:35.628Z,100735.00
2019-03-23T10:33:41.807Z,100733.00
2019-03-23T10:35:48.028Z,100730.00
2019-03-23T10:37:54.087Z,100735.00
2019-03-23T10:40:00.064Z,100731.00
2019-03-23T10:42:05.926Z,100733.00
2019-03-23T10:44:11.971Z,100725.00
2019-03-23T10:46:18.423Z,100728.00
2019-03-23T10:48:25.286Z,100729.00
2019-03-23T10:50:31.135Z,100723.00
2019-03-23T10:52:37.010Z,100725.00
2019-03-23T10:54:43.028Z,100724.00
2019-03-23T10:56:49.163Z,100721.00
2019-03-23T10:58:55.765Z,100728.00
2019-03-23T11:01:01.628Z,100727.00
2019-03-23T11:03:07.790Z,100731.00
2019-03-23T11:05:13.824Z,100732.00
2019-03-23T11:07:19.652Z,100723.00
2019-03-23T11:09:25.750Z,100722.00
2019-03-23T11:11:32.206Z,100730.00
2019-03-23T11:13:38.718Z,100737.00
2019-03-23T11:15:44.451Z,100736.00
2019-03-23T11:17:50.493Z,100736.00
2019-03-23T11:19:58.484Z,100723.00
2019-03-23T11:22:04.691Z,100729.00
2019-03-23T11:24:10.824Z,100730.00
2019-03-23T11:26:16.861Z,100732.00
2019-03-23T11:28:22.660Z,100730.00
2019-03-23T11:30:28.786Z,100742.00
2019-03-23T11:32:34.703Z,100739.00
2019-03-23T11:34:40.533Z,100739.00
2019-03-23T11:36:46.483Z,100740.00
2019-03-23T11:38:52.290Z,100740.00
2019-03-23T11:40:58.279Z,100741.00
2019-03-23T11:43:04.310Z,100744.00
2019-03-23T11:45:10.489Z,100745.00
2019-03-23T11:47:17.335Z,100746.00
2019-03-23T11:49:23.085Z,100749.00
2019-03-23T11:51:29.141Z,100754.00
2019-03-23T11:53:35.151Z,100757.00
2019-03-23T11:55:41.454Z,100752.00
2019-03-23T11:57:47.536Z,100765.00
2019-03-23T11:59:53.228Z,100771.00
2019-03-23T12:01:59.629Z,100761.00
2019-03-23T12:04:05.564Z,100752.00
2019-03-23T12:06:12.451Z,100756.00
2019-03-23T12:08:18.522Z,100765.00
2019-03-23T12:10:24.596Z,100756.00
2019-03-23T12:12:30.447Z,100761.00
2019-03-23T12:14:36.858Z,100758.00
2019-03-23T12:16:42.677Z,100750.00
2019-03-23T12:18:48.351Z,100747.00
2019-03-23T12:20:54.676Z,100747.00
2019-03-23T12:23:00.433Z,100750.00
2019-03-23T12:25:07.043Z,100742.00
2019-03-23T12:27:13.703Z,100749.00
2019-03-23T12:29:19.507Z,100739.00
2019-03-23T12:31:25.188Z,100740.00
2019-03-23T12:33:31.434Z,100734.00
2019-03-23T12:35:37.321Z,100746.00
2019-03-23T12:37:43.800Z,100746.00
2019-03-23T12:39:49.868Z,100744.00
2019-03-23T12:41:56.284Z,100747.00
2019-03-23T12:44:02.071Z,100750.00
2019-03-23T12:46:08.186Z,100742.00
2019-03-23T12:48:14.397Z,100748.00
2019-03-23T12:50:20.414Z,100744.00
2019-03-23T12:52:26.393Z,100744.00
2019-03-23T12:54:32.783Z,100734.00
2019-03-23T12:56:38.472Z,100743.00
2019-03-23T12:58:44.511Z,100744.00
2019-03-23T13:00:50.469Z,100738.00
2019-03-23T13:02:57.642Z,100743.00
2019-03-23T13:05:04.174Z,100735.00
2019-03-23T13:07:10.834Z,100743.00
2019-03-23T13:09:16.800Z,100737.00
2019-03-23T13:11:24.627Z,100737.00
2019-03-23T13:13:30.598Z,100728.00
2019-03-23T13:15:36.420Z,100731.00
2019-03-23T13:17:42.473Z,100735.00
2019-03-23T13:19:48.476Z,100736.00
2019-03-23T13:21:54.820Z,100735.00
2019-03-23T13:24:01.023Z,100737.00
2019-03-23T13:26:07.109Z,100741.00
2019-03-23T13:28:13.444Z,100745.00
2019-03-23T13:30:19.720Z,100739.00
2019-03-23T13:32:25.571Z,100743.00
2019-03-23T13:34:31.316Z,100731.00
2019-03-23T13:36:37.806Z,100731.00
2019-03-23T13:38:44.088Z,100732.00
2019-03-23T13:40:50.456Z,100737.00
2019-03-23T13:42:56.956Z,100727.00
2019-03-23T13:45:02.973Z,100722.00
2019-03-23T13:47:08.734Z,100725.00
2019-03-23T13:49:14.854Z,100718.00
2019-03-23T13:51:20.777Z,100731.00
2019-03-23T13:53:26.472Z,100718.00
2019-03-23T13:55:34.397Z,100726.00
2019-03-23T13:57:40.106Z,100717.00
2019-03-23T13:59:47.133Z,100720.00
2019-03-23T14:01:53.574Z,100713.00
2019-03-23T14:03:59.789Z,100714.00
2019-03-23T14:06:05.868Z,100705.00
2019-03-23T14:08:11.555Z,100711.00
2019-03-23T14:10:17.322Z,100706.00
2019-03-23T14:12:23.086Z,100702.00
2019-03-23T14:14:29.122Z,100700.00
2019-03-23T14:16:35.320Z,100703.00
2019-03-23T14:18:42.095Z,100712.00
2019-03-23T14:20:48.400Z,100702.00
2019-03-23T14:23:02.334Z,100704.00
2019-03-23T14:25:02.390Z,100702.00
2019-03-23T14:27:09.212Z,100699.00
2019-03-23T14:29:14.907Z,100703.00
2019-03-23T14:31:21.097Z,100698.00
2019-03-23T14:33:27.056Z,100700.00
2019-03-23T14:35:33.055Z,100694.00
2019-03-23T14:37:39.020Z,100703.00
2019-03-23T14:39:45.123Z,100700.00
2019-03-23T14:41:50.808Z,100702.00
2019-03-23T14:43:56.766Z,100701.00
2019-03-23T14:46:02.705Z,100700.00
2019-03-23T14:48:08.505Z,100708.00
2019-03-23T14:50:14.421Z,100706.00
2019-03-23T14:52:20.345Z,100708.00
2019-03-23T14:54:26.326Z,100707.00
2019-03-23T14:56:32.412Z,100708.00
2019-03-23T14:58:39.255Z,100711.00
2019-03-23T15:00:45.218Z,100711.00
2019-03-23T15:02:51.947Z,100710.00
2019-03-23T15:04:58.311Z,100714.00
2019-03-23T15:07:04.183Z,100716.00
2019-03-23T15:09:10.148Z,100719.00
2019-03-23T15:11:16.257Z,100714.00
2019-03-23T15:13:22.464Z,100720.00
2019-03-23T15:15:28.588Z,100721.00
2019-03-23T15:17:34.298Z,100718.00
2019-03-23T15:19:40.362Z,100723.00
2019-03-23T15:21:46.129Z,100718.00
2019-03-23T15:23:52.542Z,100717.00
2019-03-23T15:25:59.686Z,100721.00
2019-03-23T15:28:06.139Z,100710.00
2019-03-23T15:30:12.422Z,100715.00
2019-03-23T15:32:18.512Z,100718.00
2019-03-23T15:34:24.444Z,100717.00
2019-03-23T15:36:30.180Z,100716.00
2019-03-23T15:38:35.923Z,100708.00
2019-03-23T15:40:41.878Z,100708.00
2019-03-23T15:42:47.670Z,100711.00
2019-03-23T15:44:54.529Z,100708.00
2019-03-23T15:47:00.298Z,100699.00
2019-03-23T15:49:06.676Z,100704.00
2019-03-23T15:51:13.102Z,100707.00
2019-03-23T15:53:18.782Z,100701.00
2019-03-23T15:55:24.593Z,100704.00
2019-03-23T15:57:31.090Z,100712.00
2019-03-23T15:59:37.052Z,100704.00
2019-03-23T16:01:42.816Z,100701.00
2019-03-23T16:03:48.787Z,100697.00
2019-03-23T16:05:55.196Z,100704.00
2019-03-23T16:08:00.911Z,100698.00
2019-03-23T16:10:07.862Z,100696.00
2019-03-23T16:12:13.618Z,100699.00
2019-03-23T16:14:19.881Z,100706.00
2019-03-23T16:16:25.574Z,100703.00
2019-03-23T16:18:32.346Z,100700.00
2019-03-23T16:20:38.462Z,100701.00
2019-03-23T16:22:44.932Z,100698.00
2019-03-23T16:24:50.696Z,100701.00
2019-03-23T16:26:56.451Z,100699.00
2019-03-23T16:29:02.147Z,100706.00
2019-03-23T16:31:08.285Z,100705.00
2019-03-23T16:33:14.083Z,100705.00
2019-03-23T16:35:19.778Z,100699.00
2019-03-23T16:37:25.839Z,100697.00
2019-03-23T16:39:32.167Z,100707.00
2019-03-23T16:41:38.369Z,100711.00
2019-03-23T16:43:44.819Z,100712.00
2019-03-23T16:45:50.999Z,100707.00
2019-03-23T16:47:57.573Z,100706.00
2019-03-23T16:50:03.418Z,100711.00
2019-03-23T16:52:09.175Z,100707.00
2019-03-23T16:54:15.110Z,100710.00
2019-03-23T16:56:20.958Z,100707.00
2019-03-23T16:58:26.719Z,100702.00
2019-03-23T17:00:38.027Z,100701.00
2019-03-23T17:02:44.587Z,100700.00
2019-03-23T17:04:50.881Z,100708.00
2019-03-23T17:06:56.616Z,100701.00
2019-03-23T17:09:02.759Z,100700.00
2019-03-23T17:11:09.019Z,100696.00
2019-03-23T17:13:15.792Z,100704.00
2019-03-23T17:15:21.542Z,100708.00
2019-03-23T17:17:28.122Z,100698.00
2019-03-23T17:19:34.118Z,100697.00
2019-03-23T17:21:40.502Z,100699.00
2019-03-23T17:23:46.470Z,100702.00
2019-03-23T17:25:52.543Z,100705.00
2019-03-23T17:27:58.307Z,100709.00
2019-03-23T17:30:04.604Z,100708.00
2019-03-23T17:32:10.409Z,100712.00
2019-03-23T17:34:16.093Z,100711.00
2019-03-23T17:36:22.113Z,100706.00
2019-03-23T17:38:27.871Z,100716.00
2019-03-23T17:40:33.553Z,100722.00
2019-03-23T17:42:39.715Z,100715.00
2019-03-23T17:44:46.270Z,100730.00
2019-03-23T17:46:53.025Z,100724.00
2019-03-23T17:48:59.301Z,100724.00
2019-03-23T17:51:06.978Z,100716.00
2019-03-23T17:53:13.805Z,100711.00
2019-03-23T17:55:19.571Z,100721.00
2019-03-23T17:57:25.368Z,100722.00
2019-03-23T17:59:31.391Z,100722.00
2019-03-23T18:01:37.091Z,100727.00
2019-03-23T18:03:42.946Z,100724.00
2019-03-23T18:05:49.313Z,100724.00
2019-03-23T18:07:55.377Z,100731.00
2019-03-23T18:10:02.442Z,100723.00
2019-03-23T18:12:08.363Z,100731.00
2019-03-23T18:14:14.733Z,100731.00
2019-03-23T18:16:21.819Z,100734.00
2019-03-23T18:18:28.633Z,100719.00
2019-03-23T18:20:35.106Z,100717.00
2019-03-23T18:22:41.369Z,100723.00
2019-03-23T18:24:47.864Z,100724.00
2019-03-23T18:26:54.146Z,100724.00
2019-03-23T18:29:00.920Z,100727.00
2019-03-23T18:31:07.017Z,100732.00
2019-03-23T18:33:13.031Z,100730.00
2019-03-23T18:35:18.756Z,100727.00
2019-03-23T18:37:24.455Z,100739.00
2019-03-23T18:39:31.237Z,100734.00
2019-03-23T18:41:37.246Z,100733.00
2019-03-23T18:43:44.074Z,100737.00
2019-03-23T18:45:49.977Z,100742.00
2019-03-23T18:47:56.314Z,100737.00
2019-03-23T18:50:02.558Z,100736.00
2019-03-23T18:52:09.052Z,100736.00
2019-03-23T18:54:15.158Z,100741.00
2019-03-23T18:56:20.857Z,100743.00
2019-03-23T18:58:27.702Z,100748.00
2019-03-23T19:00:39.426Z,100740.00
2019-03-23T19:02:45.356Z,100741.00
2019-03-23T19:04:51.468Z,100742.00
2019-03-23T19:06:58.177Z,100745.00
2019-03-23T19:09:05.432Z,100745.00
2019-03-23T19:11:11.831Z,100747.00
2019-03-23T19:13:17.742Z,100747.00
2019-03-23T19:15:23.895Z,100750.00
2019-03-23T19:17:29.651Z,100746.00
2019-03-23T19:19:35.719Z,100750.00
2019-03-23T19:21:41.910Z,100752.00
2019-03-23T19:23:48.410Z,100743.00
2019-03-23T19:25:54.463Z,100745.00
2019-03-23T19:28:00.515Z,100746.00
2019-03-23T19:30:07.212Z,100757.00
2019-03-23T19:32:13.152Z,100748.00
2019-03-23T19:34:18.841Z,100750.00
2019-03-23T19:36:24.837Z,100751.00
2019-03-23T19:38:30.669Z,100750.00
2019-03-23T19:40:36.547Z,100746.00
2019-03-23T19:42:42.239Z,100750.00
2019-03-23T19:44:48.117Z,100764.00
2019-03-23T19:46:53.779Z,100760.00
2019-03-23T19:48:59.923Z,100761.00
2019-03-23T19:51:06.688Z,100758.00
2019-03-23T19:53:12.478Z,100757.00
2019-03-23T19:55:18.262Z,100755.00
2019-03-23T19:57:24.473Z,100762.00
2019-03-23T19:59:30.304Z,100760.00
2019-03-23T20:01:36.347Z,100757.00
2019-03-23T20:03:42.311Z,100757.00
2019-03-23T20:05:49.110Z,100749.00
2019-03-23T20:07:55.130Z,100760.00
2019-03-23T20:10:00.892Z,100754.00
2019-03-23T20:12:06.887Z,100741.00
2019-03-23T20:14:12.909Z,100755.00
2019-03-23T20:16:18.715Z,100762.00
2019-03-23T20:18:24.685Z,100755.00
2019-03-23T20:20:31.113Z,100762.00
2019-03-23T20:22:38.326Z,100761.00
2019-03-23T20:24:45.197Z,100752.00
2019-03-23T20:26:52.301Z,100754.00
2019-03-23T20:28:59.040Z,100749.00
2019-03-23T20:31:05.193Z,100757.00
2019-03-23T20:33:19.112Z,100744.00
2019-03-23T20:35:19.046Z,100743.00
2019-03-23T20:37:26.128Z,100734.00
2019-03-23T20:39:32.263Z,100745.00
2019-03-23T20:41:38.607Z,100749.00
2019-03-23T20:43:45.350Z,100749.00
2019-03-23T20:45:51.428Z,100752.00
2019-03-23T20:47:57.859Z,100749.00
2019-03-23T20:50:04.425Z,100747.00
2019-03-23T20:52:11.108Z,100740.00
2019-03-23T20:54:17.578Z,100743.00
2019-03-23T20:56:23.640Z,100749.00
2019-03-23T20:58:29.915Z,100731.00
2019-03-23T21:00:35.699Z,100730.00
2019-03-23T21:02:42.391Z,100732.00
2019-03-23T21:04:48.357Z,100752.00
2019-03-23T21:06:54.821Z,100733.00
2019-03-23T21:09:00.626Z,100736.00
2019-03-23T21:11:06.387Z,100737.00
2019-03-23T21:13:12.224Z,100735.00
2019-03-23T21:15:18.527Z,100729.00
2019-03-23T21:17:24.440Z,100733.00
2019-03-23T21:19:30.571Z,100722.00
2019-03-23T21:21:36.766Z,100717.00
2019-03-23T21:23:42.458Z,100709.00
2019-03-23T21:25:49.335Z,100718.00
2019-03-23T21:27:55.181Z,100720.00
2019-03-23T21:30:01.653Z,100721.00
2019-03-23T21:32:07.554Z,100714.00
2019-03-23T21:34:13.698Z,100710.00
2019-03-23T21:36:19.626Z,100709.00
2019-03-23T21:38:25.953Z,100707.00
2019-03-23T21:40:31.980Z,100712.00
2019-03-23T21:42:38.108Z,100701.00
2019-03-23T21:44:44.430Z,100704.00
2019-03-23T21:46:50.553Z,100702.00
2019-03-23T21:48:56.510Z,100702.00
2019-03-23T21:51:02.948Z,100699.00
2019-03-23T21:53:08.607Z,100701.00
2019-03-23T21:55:15.388Z,100693.00
2019-03-23T21:57:21.411Z,100688.00
2019-03-23T21:59:27.372Z,100697.00
2019-03-23T22:01:33.066Z,100689.00
2019-03-23T22:03:38.874Z,100692.00
2019-03-23T22:05:44.611Z,100696.00
2019-03-23T22:07:51.170Z,100689.00
2019-03-23T22:09:57.649Z,100694.00
2019-03-23T22:12:04.472Z,100698.00
2019-03-23T22:14:10.626Z,100695.00
2019-03-23T22:16:16.675Z,100686.00
2019-03-23T22:18:22.628Z,100685.00
2019-03-23T22:20:28.367Z,100686.00
2019-03-23T22:22:34.959Z,100684.00
2019-03-23T22:24:40.708Z,100692.00
2019-03-23T22:26:46.449Z,100682.00
2019-03-23T22:28:52.781Z,100683.00
2019-03-23T22:30:59.274Z,100679.00
2019-03-23T22:33:05.299Z,100685.00
2019-03-23T22:35:13.256Z,100688.00
2019-03-23T22:37:19.261Z,100676.00
2019-03-23T22:39:25.699Z,100685.00
2019-03-23T22:41:31.463Z,100677.00
2019-03-23T22:43:37.422Z,100683.00
2019-03-23T22:45:43.948Z,100679.00
2019-03-23T22:47:49.939Z,100675.00
2019-03-23T22:49:56.368Z,100675.00
2019-03-23T22:52:02.068Z,100669.00
2019-03-23T22:54:08.675Z,100663.00
2019-03-23T22:56:15.043Z,100671.00
2019-03-23T22:58:21.364Z,100657.00
2019-03-23T23:00:48.527Z,100663.00
2019-03-23T23:02:55.022Z,100670.00
2019-03-23T23:05:01.007Z,100667.00
2019-03-23T23:07:08.008Z,100667.00
2019-03-23T23:09:13.791Z,100660.00
2019-03-23T23:11:20.343Z,100656.00
2019-03-23T23:13:26.075Z,100654.00
2019-03-23T23:15:32.327Z,100657.00
2019-03-23T23:17:38.663Z,100645.00
2019-03-23T23:19:44.737Z,100643.00
2019-03-23T23:21:50.417Z,100648.00
2019-03-23T23:23:56.447Z,100650.00
2019-03-23T23:26:02.204Z,100653.00
2019-03-23T23:28:08.591Z,100652.00
2019-03-23T23:30:16.432Z,100656.00
2019-03-23T23:32:23.350Z,100652.00
2019-03-23T23:34:29.118Z,100652.00
2019-03-23T23:36:35.190Z,100656.00
2019-03-23T23:38:40.951Z,100660.00
2019-03-23T23:40:46.973Z,100655.00
2019-03-23T23:42:52.879Z,100660.00
2019-03-23T23:44:58.614Z,100655.00
2019-03-23T23:47:04.644Z,100651.00
2019-03-23T23:49:10.913Z,100653.00
2019-03-23T23:51:17.719Z,100651.00
2019-03-23T23:53:24.125Z,100657.00
2019-03-23T23:55:30.218Z,100654.00
2019-03-23T23:57:36.731Z,100648.00
2019-03-23T23:59:42.731Z,100643.00
